sensor_id;sensor_type;location;lat;lon;timestamp;P1;durP1;ratioP1;P2;durP2;ratioP2
986;SDS011;482;48.778;9.210;2022-07-06T00:02:20;5.00;;;4.60;;
986;SDS011;482;48.778;9.210;2022-07-06T00:04:47;4.60;;;4.27;;
986;SDS011;482;48.778;9.210;2022-07-06T00:07:14;4.77;;;4.47;;
986;SDS011;482;48.778;9.210;2022-07-06T00:09:41;4.60;;;4.30;;
986;SDS011;482;48.778;9.210;2022-07-06T00:12:08;5.23;;;4.37;;
986;SDS011;482;48.778;9.210;2022-07-06T00:14:35;4.73;;;4.37;;
986;SDS011;482;48.778;9.210;2022-07-06T00:17:04;4.30;;;4.10;;
986;SDS011;482;48.778;9.210;2022-07-06T00:19:31;6.10;;;4.57;;
986;SDS011;482;48.778;9.210;2022-07-06T00:21:57;5.17;;;4.77;;
986;SDS011;482;48.778;9.210;2022-07-06T00:24:24;4.50;;;4.20;;
986;SDS011;482;48.778;9.210;2022-07-06T00:26:51;4.93;;;4.60;;
986;SDS011;482;48.778;9.210;2022-07-06T00:29:18;5.83;;;5.23;;
986;SDS011;482;48.778;9.210;2022-07-06T00:31:45;4.93;;;4.60;;
986;SDS011;482;48.778;9.210;2022-07-06T00:34:13;5.07;;;4.67;;
986;SDS011;482;48.778;9.210;2022-07-06T00:36:40;5.33;;;4.87;;
986;SDS011;482;48.778;9.210;2022-07-06T00:39:07;4.63;;;4.30;;
986;SDS011;482;48.778;9.210;2022-07-06T00:41:34;4.90;;;4.50;;
986;SDS011;482;48.778;9.210;2022-07-06T00:44:05;5.43;;;4.93;;
986;SDS011;482;48.778;9.210;2022-07-06T00:46:34;5.13;;;4.73;;
986;SDS011;482;48.778;9.210;2022-07-06T00:49:01;5.07;;;4.67;;
986;SDS011;482;48.778;9.210;2022-07-06T00:51:30;4.97;;;4.67;;
986;SDS011;482;48.778;9.210;2022-07-06T00:53:58;5.00;;;4.60;;
986;SDS011;482;48.778;9.210;2022-07-06T00:56:28;5.10;;;4.63;;
986;SDS011;482;48.778;9.210;2022-07-06T00:58:57;4.90;;;4.60;;
986;SDS011;482;48.778;9.210;2022-07-06T01:01:24;6.07;;;5.03;;
986;SDS011;482;48.778;9.210;2022-07-06T01:03:51;5.90;;;5.40;;
986;SDS011;482;48.778;9.210;2022-07-06T01:06:18;5.07;;;4.60;;
986;SDS011;482;48.778;9.210;2022-07-06T01:08:46;5.20;;;4.80;;
986;SDS011;482;48.778;9.210;2022-07-06T01:11:14;5.20;;;4.80;;
986;SDS011;482;48.778;9.210;2022-07-06T01:13:44;5.73;;;5.10;;
986;SDS011;482;48.778;9.210;2022-07-06T01:16:11;5.50;;;5.10;;
986;SDS011;482;48.778;9.210;2022-07-06T01:18:38;5.10;;;4.80;;
986;SDS011;482;48.778;9.210;2022-07-06T01:21:10;5.00;;;4.63;;
986;SDS011;482;48.778;9.210;2022-07-06T01:23:38;4.90;;;4.60;;
986;SDS011;482;48.778;9.210;2022-07-06T01:26:08;5.67;;;5.27;;
986;SDS011;482;48.778;9.210;2022-07-06T01:28:36;5.47;;;5.00;;
986;SDS011;482;48.778;9.210;2022-07-06T01:31:03;5.40;;;5.00;;
986;SDS011;482;48.778;9.210;2022-07-06T01:33:30;4.60;;;4.20;;
986;SDS011;482;48.778;9.210;2022-07-06T01:35:56;4.97;;;4.57;;
986;SDS011;482;48.778;9.210;2022-07-06T01:38:25;5.07;;;4.67;;
986;SDS011;482;48.778;9.210;2022-07-06T01:40:52;4.50;;;4.10;;
986;SDS011;482;48.778;9.210;2022-07-06T01:43:18;4.53;;;4.23;;
986;SDS011;482;48.778;9.210;2022-07-06T01:45:45;14.20;;;5.20;;
986;SDS011;482;48.778;9.210;2022-07-06T01:48:12;4.73;;;4.33;;
986;SDS011;482;48.778;9.210;2022-07-06T01:50:39;4.67;;;4.27;;
986;SDS011;482;48.778;9.210;2022-07-06T01:53:06;4.30;;;3.97;;
986;SDS011;482;48.778;9.210;2022-07-06T01:55:34;4.50;;;4.20;;
986;SDS011;482;48.778;9.210;2022-07-06T01:58:01;4.17;;;3.77;;
986;SDS011;482;48.778;9.210;2022-07-06T02:00:28;4.63;;;4.20;;
986;SDS011;482;48.778;9.210;2022-07-06T02:02:55;5.07;;;4.07;;
986;SDS011;482;48.778;9.210;2022-07-06T02:05:22;4.40;;;4.00;;
986;SDS011;482;48.778;9.210;2022-07-06T02:07:49;4.67;;;4.27;;
986;SDS011;482;48.778;9.210;2022-07-06T02:10:15;4.00;;;3.70;;
986;SDS011;482;48.778;9.210;2022-07-06T02:12:44;4.40;;;4.00;;
986;SDS011;482;48.778;9.210;2022-07-06T02:15:11;4.20;;;3.90;;
986;SDS011;482;48.778;9.210;2022-07-06T02:17:38;4.27;;;3.97;;
986;SDS011;482;48.778;9.210;2022-07-06T02:20:05;4.40;;;4.00;;
986;SDS011;482;48.778;9.210;2022-07-06T02:22:33;4.10;;;3.80;;
986;SDS011;482;48.778;9.210;2022-07-06T02:24:59;3.80;;;3.50;;
986;SDS011;482;48.778;9.210;2022-07-06T02:27:26;4.33;;;4.03;;
986;SDS011;482;48.778;9.210;2022-07-06T02:29:55;4.30;;;3.90;;
986;SDS011;482;48.778;9.210;2022-07-06T02:32:21;4.63;;;4.10;;
986;SDS011;482;48.778;9.210;2022-07-06T02:34:48;4.87;;;4.37;;
986;SDS011;482;48.778;9.210;2022-07-06T02:37:15;4.50;;;4.20;;
986;SDS011;482;48.778;9.210;2022-07-06T02:39:42;5.50;;;4.25;;
986;SDS011;482;48.778;9.210;2022-07-06T02:42:09;4.50;;;4.10;;
986;SDS011;482;48.778;9.210;2022-07-06T02:44:36;4.70;;;4.30;;
986;SDS011;482;48.778;9.210;2022-07-06T02:47:04;4.60;;;4.20;;
986;SDS011;482;48.778;9.210;2022-07-06T02:49:31;4.43;;;4.10;;
986;SDS011;482;48.778;9.210;2022-07-06T02:51:58;5.18;;;4.78;;
986;SDS011;482;48.778;9.210;2022-07-06T02:54:25;4.55;;;4.20;;
986;SDS011;482;48.778;9.210;2022-07-06T02:56:52;5.03;;;4.63;;
986;SDS011;482;48.778;9.210;2022-07-06T02:59:19;5.20;;;4.70;;
986;SDS011;482;48.778;9.210;2022-07-06T03:01:46;5.10;;;4.70;;
986;SDS011;482;48.778;9.210;2022-07-06T03:04:14;4.50;;;4.20;;
986;SDS011;482;48.778;9.210;2022-07-06T03:06:41;5.10;;;4.60;;
986;SDS011;482;48.778;9.210;2022-07-06T03:09:08;5.22;;;4.82;;
986;SDS011;482;48.778;9.210;2022-07-06T03:11:35;4.83;;;4.53;;
986;SDS011;482;48.778;9.210;2022-07-06T03:14:02;5.15;;;4.68;;
986;SDS011;482;48.778;9.210;2022-07-06T03:16:29;4.90;;;4.53;;
986;SDS011;482;48.778;9.210;2022-07-06T03:18:56;6.15;;;5.00;;
986;SDS011;482;48.778;9.210;2022-07-06T03:21:24;6.00;;;5.50;;
986;SDS011;482;48.778;9.210;2022-07-06T03:23:51;5.18;;;4.78;;
986;SDS011;482;48.778;9.210;2022-07-06T03:26:18;4.93;;;4.50;;
986;SDS011;482;48.778;9.210;2022-07-06T03:28:45;6.57;;;6.05;;
986;SDS011;482;48.778;9.210;2022-07-06T03:31:12;5.82;;;5.35;;
986;SDS011;482;48.778;9.210;2022-07-06T03:33:39;5.25;;;4.60;;
986;SDS011;482;48.778;9.210;2022-07-06T03:36:06;5.35;;;4.95;;
986;SDS011;482;48.778;9.210;2022-07-06T03:38:34;6.10;;;5.60;;
986;SDS011;482;48.778;9.210;2022-07-06T03:41:01;8.80;;;5.20;;
986;SDS011;482;48.778;9.210;2022-07-06T03:43:29;5.32;;;4.95;;
986;SDS011;482;48.778;9.210;2022-07-06T03:45:55;5.30;;;4.90;;
986;SDS011;482;48.778;9.210;2022-07-06T03:48:22;5.50;;;5.00;;
986;SDS011;482;48.778;9.210;2022-07-06T03:50:49;5.50;;;5.00;;
986;SDS011;482;48.778;9.210;2022-07-06T03:53:16;5.70;;;5.30;;
986;SDS011;482;48.778;9.210;2022-07-06T03:55:44;5.25;;;4.85;;
986;SDS011;482;48.778;9.210;2022-07-06T03:58:32;5.13;;;4.72;;
986;SDS011;482;48.778;9.210;2022-07-06T04:00:58;5.70;;;5.30;;
986;SDS011;482;48.778;9.210;2022-07-06T04:03:25;5.80;;;5.40;;
986;SDS011;482;48.778;9.210;2022-07-06T04:05:52;6.00;;;5.50;;
986;SDS011;482;48.778;9.210;2022-07-06T04:08:19;6.18;;;5.63;;
986;SDS011;482;48.778;9.210;2022-07-06T04:10:47;5.93;;;5.32;;
986;SDS011;482;48.778;9.210;2022-07-06T04:13:14;7.32;;;6.72;;
986;SDS011;482;48.778;9.210;2022-07-06T04:15:41;8.75;;;7.97;;
986;SDS011;482;48.778;9.210;2022-07-06T04:18:08;6.28;;;5.68;;
986;SDS011;482;48.778;9.210;2022-07-06T04:20:35;6.40;;;5.60;;
986;SDS011;482;48.778;9.210;2022-07-06T04:23:03;6.20;;;5.60;;
986;SDS011;482;48.778;9.210;2022-07-06T04:25:30;6.82;;;6.00;;
986;SDS011;482;48.778;9.210;2022-07-06T04:27:58;5.97;;;5.47;;
986;SDS011;482;48.778;9.210;2022-07-06T04:30:25;7.03;;;6.38;;
986;SDS011;482;48.778;9.210;2022-07-06T04:32:52;6.65;;;6.00;;
986;SDS011;482;48.778;9.210;2022-07-06T04:35:20;6.85;;;6.35;;
986;SDS011;482;48.778;9.210;2022-07-06T04:37:47;7.28;;;6.50;;
986;SDS011;482;48.778;9.210;2022-07-06T04:40:14;6.80;;;6.20;;
986;SDS011;482;48.778;9.210;2022-07-06T04:42:41;6.30;;;5.80;;
986;SDS011;482;48.778;9.210;2022-07-06T04:45:10;6.75;;;6.25;;
986;SDS011;482;48.778;9.210;2022-07-06T04:47:37;8.27;;;7.55;;
986;SDS011;482;48.778;9.210;2022-07-06T04:50:04;7.35;;;6.75;;
986;SDS011;482;48.778;9.210;2022-07-06T04:52:32;8.10;;;7.50;;
986;SDS011;482;48.778;9.210;2022-07-06T04:54:58;7.97;;;7.18;;
986;SDS011;482;48.778;9.210;2022-07-06T04:57:25;7.78;;;7.07;;
986;SDS011;482;48.778;9.210;2022-07-06T04:59:54;7.85;;;7.25;;
986;SDS011;482;48.778;9.210;2022-07-06T05:02:22;7.70;;;6.93;;
986;SDS011;482;48.778;9.210;2022-07-06T05:04:49;8.00;;;7.30;;
986;SDS011;482;48.778;9.210;2022-07-06T05:07:16;8.70;;;7.80;;
986;SDS011;482;48.778;9.210;2022-07-06T05:09:44;8.02;;;7.40;;
986;SDS011;482;48.778;9.210;2022-07-06T05:12:10;8.27;;;7.47;;
986;SDS011;482;48.778;9.210;2022-07-06T05:14:37;7.78;;;7.18;;
986;SDS011;482;48.778;9.210;2022-07-06T05:17:04;8.10;;;7.43;;
986;SDS011;482;48.778;9.210;2022-07-06T05:19:32;8.18;;;7.35;;
986;SDS011;482;48.778;9.210;2022-07-06T05:21:59;7.50;;;7.00;;
986;SDS011;482;48.778;9.210;2022-07-06T05:24:26;8.20;;;7.50;;
986;SDS011;482;48.778;9.210;2022-07-06T05:26:53;7.78;;;7.07;;
986;SDS011;482;48.778;9.210;2022-07-06T05:29:20;8.18;;;7.50;;
986;SDS011;482;48.778;9.210;2022-07-06T05:31:47;7.72;;;6.80;;
986;SDS011;482;48.778;9.210;2022-07-06T05:34:14;7.57;;;7.07;;
986;SDS011;482;48.778;9.210;2022-07-06T05:36:42;7.60;;;6.90;;
986;SDS011;482;48.778;9.210;2022-07-06T05:39:09;8.43;;;7.72;;
986;SDS011;482;48.778;9.210;2022-07-06T05:41:36;8.00;;;7.15;;
986;SDS011;482;48.778;9.210;2022-07-06T05:44:03;8.07;;;7.40;;
986;SDS011;482;48.778;9.210;2022-07-06T05:46:30;7.20;;;6.70;;
986;SDS011;482;48.778;9.210;2022-07-06T05:48:56;7.93;;;7.30;;
986;SDS011;482;48.778;9.210;2022-07-06T05:51:42;7.75;;;7.15;;
986;SDS011;482;48.778;9.210;2022-07-06T05:54:09;7.35;;;6.70;;
986;SDS011;482;48.778;9.210;2022-07-06T05:56:36;7.82;;;7.22;;
986;SDS011;482;48.778;9.210;2022-07-06T05:59:03;7.97;;;7.28;;
986;SDS011;482;48.778;9.210;2022-07-06T06:01:29;7.18;;;6.50;;
986;SDS011;482;48.778;9.210;2022-07-06T06:03:56;7.25;;;6.70;;
986;SDS011;482;48.778;9.210;2022-07-06T06:06:24;7.00;;;6.40;;
986;SDS011;482;48.778;9.210;2022-07-06T06:08:52;7.57;;;6.97;;
986;SDS011;482;48.778;9.210;2022-07-06T06:11:19;7.80;;;7.20;;
986;SDS011;482;48.778;9.210;2022-07-06T06:13:47;7.85;;;7.15;;
986;SDS011;482;48.778;9.210;2022-07-06T06:16:13;7.65;;;7.13;;
986;SDS011;482;48.778;9.210;2022-07-06T06:18:41;8.23;;;7.40;;
986;SDS011;482;48.778;9.210;2022-07-06T06:21:08;7.60;;;7.00;;
986;SDS011;482;48.778;9.210;2022-07-06T06:23:36;7.40;;;6.70;;
986;SDS011;482;48.778;9.210;2022-07-06T06:26:04;7.47;;;6.97;;
986;SDS011;482;48.778;9.210;2022-07-06T06:28:31;7.28;;;6.68;;
986;SDS011;482;48.778;9.210;2022-07-06T06:30:58;8.10;;;7.30;;
986;SDS011;482;48.778;9.210;2022-07-06T06:33:25;7.50;;;6.80;;
986;SDS011;482;48.778;9.210;2022-07-06T06:35:52;8.63;;;7.00;;
986;SDS011;482;48.778;9.210;2022-07-06T06:38:21;7.75;;;7.15;;
986;SDS011;482;48.778;9.210;2022-07-06T06:40:51;7.53;;;6.93;;
986;SDS011;482;48.778;9.210;2022-07-06T06:43:19;7.53;;;6.93;;
986;SDS011;482;48.778;9.210;2022-07-06T06:45:46;6.72;;;6.22;;
986;SDS011;482;48.778;9.210;2022-07-06T06:48:13;6.25;;;5.82;;
986;SDS011;482;48.778;9.210;2022-07-06T06:50:41;6.73;;;6.03;;
986;SDS011;482;48.778;9.210;2022-07-06T06:53:08;7.70;;;7.10;;
986;SDS011;482;48.778;9.210;2022-07-06T06:55:35;7.07;;;6.40;;
986;SDS011;482;48.778;9.210;2022-07-06T06:58:01;7.37;;;6.67;;
986;SDS011;482;48.778;9.210;2022-07-06T07:00:30;7.40;;;6.80;;
986;SDS011;482;48.778;9.210;2022-07-06T07:02:57;6.57;;;6.07;;
986;SDS011;482;48.778;9.210;2022-07-06T07:05:23;8.38;;;7.68;;
986;SDS011;482;48.778;9.210;2022-07-06T07:07:51;7.65;;;6.95;;
986;SDS011;482;48.778;9.210;2022-07-06T07:10:19;7.13;;;6.40;;
986;SDS011;482;48.778;9.210;2022-07-06T07:12:47;7.90;;;7.10;;
986;SDS011;482;48.778;9.210;2022-07-06T07:15:14;6.53;;;5.97;;
986;SDS011;482;48.778;9.210;2022-07-06T07:17:43;6.13;;;5.53;;
986;SDS011;482;48.778;9.210;2022-07-06T07:20:11;7.07;;;6.37;;
986;SDS011;482;48.778;9.210;2022-07-06T07:22:38;6.60;;;6.10;;
986;SDS011;482;48.778;9.210;2022-07-06T07:25:05;7.03;;;6.03;;
986;SDS011;482;48.778;9.210;2022-07-06T07:27:33;5.93;;;5.53;;
986;SDS011;482;48.778;9.210;2022-07-06T07:30:00;7.00;;;6.43;;
986;SDS011;482;48.778;9.210;2022-07-06T07:32:27;6.43;;;5.87;;
986;SDS011;482;48.778;9.210;2022-07-06T07:34:55;7.07;;;6.40;;
986;SDS011;482;48.778;9.210;2022-07-06T07:37:22;7.47;;;6.90;;
986;SDS011;482;48.778;9.210;2022-07-06T07:39:49;6.83;;;6.23;;
986;SDS011;482;48.778;9.210;2022-07-06T07:42:16;7.40;;;6.70;;
986;SDS011;482;48.778;9.210;2022-07-06T07:44:42;6.97;;;6.47;;
986;SDS011;482;48.778;9.210;2022-07-06T07:47:09;7.27;;;6.63;;
986;SDS011;482;48.778;9.210;2022-07-06T07:49:36;7.60;;;6.90;;
986;SDS011;482;48.778;9.210;2022-07-06T07:52:05;6.80;;;6.20;;
986;SDS011;482;48.778;9.210;2022-07-06T07:54:32;6.57;;;6.07;;
986;SDS011;482;48.778;9.210;2022-07-06T07:56:59;7.20;;;6.50;;
986;SDS011;482;48.778;9.210;2022-07-06T07:59:25;6.53;;;6.03;;
986;SDS011;482;48.778;9.210;2022-07-06T08:01:52;6.70;;;6.20;;
986;SDS011;482;48.778;9.210;2022-07-06T08:04:19;6.27;;;5.77;;
986;SDS011;482;48.778;9.210;2022-07-06T08:06:46;6.07;;;5.53;;
986;SDS011;482;48.778;9.210;2022-07-06T08:09:16;5.30;;;4.90;;
986;SDS011;482;48.778;9.210;2022-07-06T08:11:43;6.57;;;6.07;;
986;SDS011;482;48.778;9.210;2022-07-06T08:14:10;6.20;;;5.67;;
986;SDS011;482;48.778;9.210;2022-07-06T08:16:39;6.47;;;6.07;;
986;SDS011;482;48.778;9.210;2022-07-06T08:19:06;6.57;;;5.90;;
986;SDS011;482;48.778;9.210;2022-07-06T08:21:33;7.00;;;6.40;;
986;SDS011;482;48.778;9.210;2022-07-06T08:23:59;6.80;;;6.30;;
986;SDS011;482;48.778;9.210;2022-07-06T08:26:28;7.33;;;6.80;;
986;SDS011;482;48.778;9.210;2022-07-06T08:28:55;6.63;;;6.13;;
986;SDS011;482;48.778;9.210;2022-07-06T08:31:22;6.10;;;5.70;;
986;SDS011;482;48.778;9.210;2022-07-06T08:33:49;5.43;;;5.03;;
986;SDS011;482;48.778;9.210;2022-07-06T08:36:18;6.57;;;5.83;;
986;SDS011;482;48.778;9.210;2022-07-06T08:38:45;8.33;;;6.13;;
986;SDS011;482;48.778;9.210;2022-07-06T08:41:12;7.17;;;6.57;;
986;SDS011;482;48.778;9.210;2022-07-06T08:43:42;6.20;;;5.80;;
986;SDS011;482;48.778;9.210;2022-07-06T08:46:09;6.80;;;5.37;;
986;SDS011;482;48.778;9.210;2022-07-06T08:48:39;5.53;;;5.03;;
986;SDS011;482;48.778;9.210;2022-07-06T08:51:07;6.73;;;6.23;;
986;SDS011;482;48.778;9.210;2022-07-06T08:53:34;6.27;;;5.80;;
986;SDS011;482;48.778;9.210;2022-07-06T08:56:01;6.30;;;5.80;;
986;SDS011;482;48.778;9.210;2022-07-06T08:58:28;6.40;;;5.90;;
986;SDS011;482;48.778;9.210;2022-07-06T09:00:58;5.73;;;5.30;;
986;SDS011;482;48.778;9.210;2022-07-06T09:03:25;6.63;;;6.13;;
986;SDS011;482;48.778;9.210;2022-07-06T09:05:53;5.80;;;5.40;;
986;SDS011;482;48.778;9.210;2022-07-06T09:08:25;6.63;;;6.03;;
986;SDS011;482;48.778;9.210;2022-07-06T09:10:54;6.97;;;6.37;;
986;SDS011;482;48.778;9.210;2022-07-06T09:13:21;6.60;;;5.97;;
986;SDS011;482;48.778;9.210;2022-07-06T09:15:47;6.43;;;5.93;;
986;SDS011;482;48.778;9.210;2022-07-06T09:18:16;5.90;;;5.50;;
986;SDS011;482;48.778;9.210;2022-07-06T09:20:43;5.60;;;5.20;;
986;SDS011;482;48.778;9.210;2022-07-06T09:23:09;6.10;;;5.50;;
986;SDS011;482;48.778;9.210;2022-07-06T09:25:41;6.27;;;5.87;;
986;SDS011;482;48.778;9.210;2022-07-06T09:28:08;6.67;;;6.17;;
986;SDS011;482;48.778;9.210;2022-07-06T09:30:35;6.70;;;6.20;;
986;SDS011;482;48.778;9.210;2022-07-06T09:33:05;6.50;;;6.10;;
986;SDS011;482;48.778;9.210;2022-07-06T09:35:37;5.73;;;5.33;;
986;SDS011;482;48.778;9.210;2022-07-06T09:38:05;6.77;;;6.30;;
986;SDS011;482;48.778;9.210;2022-07-06T09:40:34;5.80;;;5.40;;
986;SDS011;482;48.778;9.210;2022-07-06T09:43:08;5.70;;;5.20;;
986;SDS011;482;48.778;9.210;2022-07-06T09:45:36;5.90;;;5.50;;
986;SDS011;482;48.778;9.210;2022-07-06T09:48:09;6.10;;;5.70;;
986;SDS011;482;48.778;9.210;2022-07-06T09:50:42;5.60;;;5.20;;
986;SDS011;482;48.778;9.210;2022-07-06T09:53:11;5.73;;;5.23;;
986;SDS011;482;48.778;9.210;2022-07-06T09:55:38;5.87;;;5.47;;
986;SDS011;482;48.778;9.210;2022-07-06T09:58:08;6.40;;;5.77;;
986;SDS011;482;48.778;9.210;2022-07-06T10:00:35;6.93;;;5.50;;
986;SDS011;482;48.778;9.210;2022-07-06T10:03:02;5.43;;;5.03;;
986;SDS011;482;48.778;9.210;2022-07-06T10:05:30;6.10;;;5.50;;
986;SDS011;482;48.778;9.210;2022-07-06T10:08:00;5.67;;;5.27;;
986;SDS011;482;48.778;9.210;2022-07-06T10:10:30;6.20;;;5.80;;
986;SDS011;482;48.778;9.210;2022-07-06T10:12:59;6.97;;;6.00;;
986;SDS011;482;48.778;9.210;2022-07-06T10:15:27;5.80;;;5.30;;
986;SDS011;482;48.778;9.210;2022-07-06T10:17:57;5.50;;;5.07;;
986;SDS011;482;48.778;9.210;2022-07-06T10:20:24;5.33;;;4.93;;
986;SDS011;482;48.778;9.210;2022-07-06T10:22:55;6.13;;;5.63;;
986;SDS011;482;48.778;9.210;2022-07-06T10:25:26;6.47;;;5.90;;
986;SDS011;482;48.778;9.210;2022-07-06T10:27:54;5.53;;;5.13;;
986;SDS011;482;48.778;9.210;2022-07-06T10:30:21;5.77;;;5.37;;
986;SDS011;482;48.778;9.210;2022-07-06T10:32:50;5.40;;;5.00;;
986;SDS011;482;48.778;9.210;2022-07-06T10:35:18;6.50;;;6.00;;
986;SDS011;482;48.778;9.210;2022-07-06T10:37:45;5.70;;;5.30;;
986;SDS011;482;48.778;9.210;2022-07-06T10:40:32;5.87;;;5.47;;
986;SDS011;482;48.778;9.210;2022-07-06T10:43:17;6.13;;;5.73;;
986;SDS011;482;48.778;9.210;2022-07-06T10:45:50;6.00;;;5.60;;
986;SDS011;482;48.778;9.210;2022-07-06T10:48:19;6.20;;;5.70;;
986;SDS011;482;48.778;9.210;2022-07-06T10:50:48;5.70;;;5.20;;
986;SDS011;482;48.778;9.210;2022-07-06T10:53:17;6.13;;;5.70;;
986;SDS011;482;48.778;9.210;2022-07-06T10:55:49;6.50;;;5.80;;
986;SDS011;482;48.778;9.210;2022-07-06T11:01:02;6.20;;;5.70;;
986;SDS011;482;48.778;9.210;2022-07-06T11:03:34;5.83;;;5.37;;
986;SDS011;482;48.778;9.210;2022-07-06T11:06:05;6.00;;;5.50;;
986;SDS011;482;48.778;9.210;2022-07-06T11:08:41;5.00;;;4.70;;
986;SDS011;482;48.778;9.210;2022-07-06T11:11:16;5.33;;;4.97;;
986;SDS011;482;48.778;9.210;2022-07-06T11:13:52;6.13;;;5.73;;
986;SDS011;482;48.778;9.210;2022-07-06T11:16:24;6.40;;;5.90;;
986;SDS011;482;48.778;9.210;2022-07-06T11:18:59;5.87;;;5.30;;
986;SDS011;482;48.778;9.210;2022-07-06T11:21:37;6.37;;;5.77;;
986;SDS011;482;48.778;9.210;2022-07-06T11:24:07;6.20;;;5.70;;
986;SDS011;482;48.778;9.210;2022-07-06T11:26:36;6.80;;;6.20;;
986;SDS011;482;48.778;9.210;2022-07-06T11:29:04;6.80;;;6.13;;
986;SDS011;482;48.778;9.210;2022-07-06T11:31:35;6.40;;;5.90;;
986;SDS011;482;48.778;9.210;2022-07-06T11:34:04;6.20;;;5.70;;
986;SDS011;482;48.778;9.210;2022-07-06T11:36:33;6.13;;;5.63;;
986;SDS011;482;48.778;9.210;2022-07-06T11:39:00;6.30;;;5.80;;
986;SDS011;482;48.778;9.210;2022-07-06T11:41:28;6.80;;;6.20;;
986;SDS011;482;48.778;9.210;2022-07-06T11:43:56;10.63;;;6.50;;
986;SDS011;482;48.778;9.210;2022-07-06T11:46:24;6.30;;;5.80;;
986;SDS011;482;48.778;9.210;2022-07-06T11:48:53;6.60;;;6.00;;
986;SDS011;482;48.778;9.210;2022-07-06T11:51:21;5.60;;;5.20;;
986;SDS011;482;48.778;9.210;2022-07-06T11:53:49;6.77;;;6.23;;
986;SDS011;482;48.778;9.210;2022-07-06T11:56:17;7.30;;;6.60;;
986;SDS011;482;48.778;9.210;2022-07-06T11:58:46;7.83;;;6.70;;
986;SDS011;482;48.778;9.210;2022-07-06T12:01:17;7.90;;;7.00;;
986;SDS011;482;48.778;9.210;2022-07-06T12:03:44;6.87;;;6.10;;
986;SDS011;482;48.778;9.210;2022-07-06T12:06:12;7.00;;;6.40;;
986;SDS011;482;48.778;9.210;2022-07-06T12:08:41;7.57;;;6.87;;
986;SDS011;482;48.778;9.210;2022-07-06T12:11:09;7.27;;;6.67;;
986;SDS011;482;48.778;9.210;2022-07-06T12:13:37;6.50;;;5.90;;
986;SDS011;482;48.778;9.210;2022-07-06T12:16:09;7.20;;;6.67;;
986;SDS011;482;48.778;9.210;2022-07-06T12:18:38;7.80;;;5.90;;
986;SDS011;482;48.778;9.210;2022-07-06T12:21:09;6.53;;;6.00;;
986;SDS011;482;48.778;9.210;2022-07-06T12:23:38;5.93;;;5.43;;
986;SDS011;482;48.778;9.210;2022-07-06T12:26:07;7.17;;;6.57;;
986;SDS011;482;48.778;9.210;2022-07-06T12:28:34;7.67;;;7.17;;
986;SDS011;482;48.778;9.210;2022-07-06T12:31:02;7.37;;;6.10;;
986;SDS011;482;48.778;9.210;2022-07-06T12:33:29;6.70;;;6.10;;
986;SDS011;482;48.778;9.210;2022-07-06T12:35:57;6.50;;;6.00;;
986;SDS011;482;48.778;9.210;2022-07-06T12:38:35;7.50;;;6.77;;
986;SDS011;482;48.778;9.210;2022-07-06T12:41:09;8.03;;;7.23;;
986;SDS011;482;48.778;9.210;2022-07-06T12:43:37;7.13;;;6.30;;
986;SDS011;482;48.778;9.210;2022-07-06T12:46:25;6.80;;;6.27;;
986;SDS011;482;48.778;9.210;2022-07-06T12:48:54;6.80;;;6.30;;
986;SDS011;482;48.778;9.210;2022-07-06T12:51:23;7.70;;;7.10;;
986;SDS011;482;48.778;9.210;2022-07-06T12:53:50;6.97;;;6.37;;
986;SDS011;482;48.778;9.210;2022-07-06T12:56:17;6.53;;;6.03;;
986;SDS011;482;48.778;9.210;2022-07-06T12:58:57;6.97;;;6.43;;
986;SDS011;482;48.778;9.210;2022-07-06T13:01:24;6.23;;;5.80;;
986;SDS011;482;48.778;9.210;2022-07-06T13:03:55;6.53;;;5.93;;
986;SDS011;482;48.778;9.210;2022-07-06T13:06:30;6.00;;;5.50;;
986;SDS011;482;48.778;9.210;2022-07-06T13:08:58;7.40;;;6.50;;
986;SDS011;482;48.778;9.210;2022-07-06T13:11:25;6.17;;;5.60;;
986;SDS011;482;48.778;9.210;2022-07-06T13:13:52;6.70;;;5.80;;
986;SDS011;482;48.778;9.210;2022-07-06T13:16:19;6.30;;;5.80;;
986;SDS011;482;48.778;9.210;2022-07-06T13:18:47;6.23;;;5.60;;
986;SDS011;482;48.778;9.210;2022-07-06T13:21:15;6.10;;;5.70;;
986;SDS011;482;48.778;9.210;2022-07-06T13:23:43;6.17;;;5.67;;
986;SDS011;482;48.778;9.210;2022-07-06T13:26:10;5.53;;;5.13;;
986;SDS011;482;48.778;9.210;2022-07-06T13:28:36;5.80;;;5.27;;
986;SDS011;482;48.778;9.210;2022-07-06T13:31:03;6.17;;;5.57;;
986;SDS011;482;48.778;9.210;2022-07-06T13:33:30;6.00;;;5.60;;
986;SDS011;482;48.778;9.210;2022-07-06T13:35:57;6.13;;;5.73;;
986;SDS011;482;48.778;9.210;2022-07-06T13:38:24;6.90;;;5.60;;
986;SDS011;482;48.778;9.210;2022-07-06T13:40:52;6.27;;;5.57;;
986;SDS011;482;48.778;9.210;2022-07-06T13:43:19;6.07;;;5.67;;
986;SDS011;482;48.778;9.210;2022-07-06T13:45:46;6.37;;;5.87;;
986;SDS011;482;48.778;9.210;2022-07-06T13:48:13;6.20;;;5.70;;
986;SDS011;482;48.778;9.210;2022-07-06T13:50:40;5.90;;;5.50;;
986;SDS011;482;48.778;9.210;2022-07-06T13:53:07;13.00;;;5.70;;
986;SDS011;482;48.778;9.210;2022-07-06T13:55:34;5.77;;;5.37;;
986;SDS011;482;48.778;9.210;2022-07-06T13:58:02;7.23;;;6.63;;
986;SDS011;482;48.778;9.210;2022-07-06T14:00:29;6.23;;;5.73;;
986;SDS011;482;48.778;9.210;2022-07-06T14:02:57;5.90;;;5.50;;
986;SDS011;482;48.778;9.210;2022-07-06T14:05:24;6.20;;;5.70;;
986;SDS011;482;48.778;9.210;2022-07-06T14:07:51;5.63;;;5.13;;
986;SDS011;482;48.778;9.210;2022-07-06T14:10:18;5.93;;;5.60;;
986;SDS011;482;48.778;9.210;2022-07-06T14:12:45;7.73;;;5.23;;
986;SDS011;482;48.778;9.210;2022-07-06T14:15:13;6.07;;;5.50;;
986;SDS011;482;48.778;9.210;2022-07-06T14:17:40;6.30;;;5.90;;
986;SDS011;482;48.778;9.210;2022-07-06T14:20:07;5.70;;;5.30;;
986;SDS011;482;48.778;9.210;2022-07-06T14:22:36;5.90;;;5.40;;
986;SDS011;482;48.778;9.210;2022-07-06T14:25:03;13.03;;;11.87;;
986;SDS011;482;48.778;9.210;2022-07-06T14:27:31;5.57;;;5.17;;
986;SDS011;482;48.778;9.210;2022-07-06T14:29:59;5.30;;;4.90;;
986;SDS011;482;48.778;9.210;2022-07-06T14:32:27;5.30;;;4.90;;
986;SDS011;482;48.778;9.210;2022-07-06T14:34:54;6.13;;;5.67;;
986;SDS011;482;48.778;9.210;2022-07-06T14:37:21;5.73;;;5.33;;
986;SDS011;482;48.778;9.210;2022-07-06T14:39:47;5.53;;;5.13;;
986;SDS011;482;48.778;9.210;2022-07-06T14:42:15;5.13;;;4.73;;
986;SDS011;482;48.778;9.210;2022-07-06T14:44:42;6.00;;;5.30;;
986;SDS011;482;48.778;9.210;2022-07-06T14:47:09;5.40;;;5.03;;
986;SDS011;482;48.778;9.210;2022-07-06T14:49:37;7.77;;;5.10;;
986;SDS011;482;48.778;9.210;2022-07-06T14:52:04;4.70;;;4.40;;
986;SDS011;482;48.778;9.210;2022-07-06T14:54:32;5.77;;;5.47;;
986;SDS011;482;48.778;9.210;2022-07-06T14:56:58;5.40;;;4.90;;
986;SDS011;482;48.778;9.210;2022-07-06T14:59:27;5.70;;;5.20;;
986;SDS011;482;48.778;9.210;2022-07-06T15:01:54;4.93;;;4.63;;
986;SDS011;482;48.778;9.210;2022-07-06T15:04:21;5.07;;;4.67;;
986;SDS011;482;48.778;9.210;2022-07-06T15:06:49;5.33;;;4.80;;
986;SDS011;482;48.778;9.210;2022-07-06T15:09:16;5.17;;;4.87;;
986;SDS011;482;48.778;9.210;2022-07-06T15:11:43;5.27;;;4.77;;
986;SDS011;482;48.778;9.210;2022-07-06T15:14:10;5.23;;;4.73;;
986;SDS011;482;48.778;9.210;2022-07-06T15:16:37;5.60;;;5.20;;
986;SDS011;482;48.778;9.210;2022-07-06T15:19:04;5.43;;;5.03;;
986;SDS011;482;48.778;9.210;2022-07-06T15:21:31;5.30;;;5.00;;
986;SDS011;482;48.778;9.210;2022-07-06T15:23:59;4.60;;;4.30;;
986;SDS011;482;48.778;9.210;2022-07-06T15:26:26;4.97;;;4.57;;
986;SDS011;482;48.778;9.210;2022-07-06T15:28:53;5.60;;;5.20;;
986;SDS011;482;48.778;9.210;2022-07-06T15:31:20;5.87;;;5.47;;
986;SDS011;482;48.778;9.210;2022-07-06T15:33:47;4.70;;;4.40;;
986;SDS011;482;48.778;9.210;2022-07-06T15:36:13;5.50;;;5.10;;
986;SDS011;482;48.778;9.210;2022-07-06T15:38:40;5.23;;;4.83;;
986;SDS011;482;48.778;9.210;2022-07-06T15:41:09;4.73;;;4.43;;
986;SDS011;482;48.778;9.210;2022-07-06T15:43:36;4.97;;;4.60;;
986;SDS011;482;48.778;9.210;2022-07-06T15:46:03;6.10;;;5.50;;
986;SDS011;482;48.778;9.210;2022-07-06T15:48:30;4.60;;;4.30;;
986;SDS011;482;48.778;9.210;2022-07-06T15:50:57;5.03;;;4.50;;
986;SDS011;482;48.778;9.210;2022-07-06T15:53:26;14.07;;;12.67;;